sensor_id;sensor_type;location;lat;lon;timestamp;P1;durP1;ratioP1;P2;durP2;ratioP2
33279;SDS011;20403;43.114;12.434;2023-10-19T00:02:04;18.45;;;9.48;;
33279;SDS011;20403;43.114;12.434;2023-10-19T00:04:31;17.73;;;9.07;;
33279;SDS011;20403;43.114;12.434;2023-10-19T00:06:57;12.80;;;9.00;;
33279;SDS011;20403;43.114;12.434;2023-10-19T00:09:23;16.55;;;9.07;;
33279;SDS011;20403;43.114;12.434;2023-10-19T00:11:48;18.00;;;8.77;;
33279;SDS011;20403;43.114;12.434;2023-10-19T00:14:16;14.70;;;8.90;;
33279;SDS011;20403;43.114;12.434;2023-10-19T00:16:43;11.43;;;8.13;;
33279;SDS011;20403;43.114;12.434;2023-10-19T00:19:16;13.35;;;8.50;;
33279;SDS011;20403;43.114;12.434;2023-10-19T00:21:44;14.73;;;8.50;;
33279;SDS011;20403;43.114;12.434;2023-10-19T00:24:20;20.92;;;9.52;;
33279;SDS011;20403;43.114;12.434;2023-10-19T00:26:48;16.80;;;7.80;;
33279;SDS011;20403;43.114;12.434;2023-10-19T00:29:19;16.27;;;9.52;;
33279;SDS011;20403;43.114;12.434;2023-10-19T00:31:58;16.70;;;7.93;;
33279;SDS011;20403;43.114;12.434;2023-10-19T00:34:25;16.40;;;8.73;;
33279;SDS011;20403;43.114;12.434;2023-10-19T00:36:53;13.75;;;8.13;;
33279;SDS011;20403;43.114;12.434;2023-10-19T00:39:26;14.23;;;8.65;;
33279;SDS011;20403;43.114;12.434;2023-10-19T00:41:52;14.77;;;8.52;;
33279;SDS011;20403;43.114;12.434;2023-10-19T00:44:23;20.50;;;7.97;;
33279;SDS011;20403;43.114;12.434;2023-10-19T00:47:06;15.40;;;7.38;;
33279;SDS011;20403;43.114;12.434;2023-10-19T00:49:38;12.02;;;7.43;;
33279;SDS011;20403;43.114;12.434;2023-10-19T00:52:03;11.43;;;7.10;;
33279;SDS011;20403;43.114;12.434;2023-10-19T00:54:38;17.70;;;7.00;;
33279;SDS011;20403;43.114;12.434;2023-10-19T00:57:07;15.15;;;6.95;;
33279;SDS011;20403;43.114;12.434;2023-10-19T00:59:36;13.02;;;6.68;;
33279;SDS011;20403;43.114;12.434;2023-10-19T01:02:19;10.82;;;6.57;;
33279;SDS011;20403;43.114;12.434;2023-10-19T01:04:53;14.63;;;7.22;;
33279;SDS011;20403;43.114;12.434;2023-10-19T01:07:26;13.63;;;7.80;;
33279;SDS011;20403;43.114;12.434;2023-10-19T01:09:54;15.75;;;7.32;;
33279;SDS011;20403;43.114;12.434;2023-10-19T01:12:24;15.63;;;7.22;;
33279;SDS011;20403;43.114;12.434;2023-10-19T01:17:58;10.45;;;6.68;;
33279;SDS011;20403;43.114;12.434;2023-10-19T01:20:24;12.10;;;6.60;;
33279;SDS011;20403;43.114;12.434;2023-10-19T01:23:04;12.82;;;7.00;;
33279;SDS011;20403;43.114;12.434;2023-10-19T01:25:41;14.13;;;7.20;;
33279;SDS011;20403;43.114;12.434;2023-10-19T01:28:14;13.45;;;7.15;;
33279;SDS011;20403;43.114;12.434;2023-10-19T01:30:43;15.35;;;7.65;;
33279;SDS011;20403;43.114;12.434;2023-10-19T01:33:10;18.50;;;7.03;;
33279;SDS011;20403;43.114;12.434;2023-10-19T01:35:40;14.38;;;7.13;;
33279;SDS011;20403;43.114;12.434;2023-10-19T01:38:28;15.05;;;8.00;;
33279;SDS011;20403;43.114;12.434;2023-10-19T01:41:00;15.98;;;6.85;;
33279;SDS011;20403;43.114;12.434;2023-10-19T01:43:27;10.75;;;7.30;;
33279;SDS011;20403;43.114;12.434;2023-10-19T01:45:59;12.35;;;6.88;;
33279;SDS011;20403;43.114;12.434;2023-10-19T01:48:38;15.18;;;7.38;;
33279;SDS011;20403;43.114;12.434;2023-10-19T01:51:06;11.75;;;6.40;;
33279;SDS011;20403;43.114;12.434;2023-10-19T01:53:36;12.35;;;6.85;;
33279;SDS011;20403;43.114;12.434;2023-10-19T01:56:12;12.07;;;6.57;;
33279;SDS011;20403;43.114;12.434;2023-10-19T01:58:42;19.17;;;7.72;;
33279;SDS011;20403;43.114;12.434;2023-10-19T02:01:12;13.02;;;6.07;;
33279;SDS011;20403;43.114;12.434;2023-10-19T02:03:41;10.52;;;6.72;;
33279;SDS011;20403;43.114;12.434;2023-10-19T02:06:11;9.68;;;6.20;;
33279;SDS011;20403;43.114;12.434;2023-10-19T02:08:52;14.05;;;6.40;;
33279;SDS011;20403;43.114;12.434;2023-10-19T02:11:25;11.30;;;6.57;;
33279;SDS011;20403;43.114;12.434;2023-10-19T02:13:56;13.30;;;7.40;;
33279;SDS011;20403;43.114;12.434;2023-10-19T02:16:29;12.35;;;7.15;;
33279;SDS011;20403;43.114;12.434;2023-10-19T02:18:54;12.95;;;6.20;;
33279;SDS011;20403;43.114;12.434;2023-10-19T02:21:20;14.18;;;6.53;;
33279;SDS011;20403;43.114;12.434;2023-10-19T02:23:52;11.27;;;5.82;;
33279;SDS011;20403;43.114;12.434;2023-10-19T02:26:18;18.90;;;7.20;;
33279;SDS011;20403;43.114;12.434;2023-10-19T02:29:03;13.35;;;6.00;;
33279;SDS011;20403;43.114;12.434;2023-10-19T02:31:37;10.65;;;5.45;;
33279;SDS011;20403;43.114;12.434;2023-10-19T02:34:05;9.85;;;5.45;;
33279;SDS011;20403;43.114;12.434;2023-10-19T02:36:32;12.18;;;5.75;;
33279;SDS011;20403;43.114;12.434;2023-10-19T02:39:01;10.80;;;6.40;;
33279;SDS011;20403;43.114;12.434;2023-10-19T02:41:39;13.05;;;6.30;;
33279;SDS011;20403;43.114;12.434;2023-10-19T02:44:11;12.93;;;5.75;;
33279;SDS011;20403;43.114;12.434;2023-10-19T02:46:46;10.60;;;6.25;;
33279;SDS011;20403;43.114;12.434;2023-10-19T02:49:15;16.52;;;6.15;;
33279;SDS011;20403;43.114;12.434;2023-10-19T02:51:43;12.98;;;6.63;;
33279;SDS011;20403;43.114;12.434;2023-10-19T02:54:12;23.10;;;6.35;;
33279;SDS011;20403;43.114;12.434;2023-10-19T02:56:54;19.25;;;8.07;;
33279;SDS011;20403;43.114;12.434;2023-10-19T02:59:24;18.23;;;7.70;;
33279;SDS011;20403;43.114;12.434;2023-10-19T03:01:56;15.05;;;7.05;;
33279;SDS011;20403;43.114;12.434;2023-10-19T03:04:31;13.43;;;7.40;;
33279;SDS011;20403;43.114;12.434;2023-10-19T03:07:00;17.27;;;7.10;;
33279;SDS011;20403;43.114;12.434;2023-10-19T03:09:27;12.05;;;7.13;;
33279;SDS011;20403;43.114;12.434;2023-10-19T03:11:53;15.52;;;8.30;;
33279;SDS011;20403;43.114;12.434;2023-10-19T03:14:21;14.38;;;7.70;;
33279;SDS011;20403;43.114;12.434;2023-10-19T03:16:50;12.88;;;8.00;;
33279;SDS011;20403;43.114;12.434;2023-10-19T03:19:16;14.80;;;8.02;;
33279;SDS011;20403;43.114;12.434;2023-10-19T03:21:41;15.38;;;7.78;;
33279;SDS011;20403;43.114;12.434;2023-10-19T03:24:14;13.50;;;7.68;;
33279;SDS011;20403;43.114;12.434;2023-10-19T03:26:59;12.77;;;7.05;;
33279;SDS011;20403;43.114;12.434;2023-10-19T03:29:24;9.68;;;7.13;;
33279;SDS011;20403;43.114;12.434;2023-10-19T03:31:57;11.43;;;6.72;;
33279;SDS011;20403;43.114;12.434;2023-10-19T03:34:24;14.32;;;6.85;;
33279;SDS011;20403;43.114;12.434;2023-10-19T03:36:49;11.20;;;6.75;;
33279;SDS011;20403;43.114;12.434;2023-10-19T03:39:17;13.85;;;6.03;;
33279;SDS011;20403;43.114;12.434;2023-10-19T03:41:43;20.08;;;6.63;;
33279;SDS011;20403;43.114;12.434;2023-10-19T03:44:12;12.23;;;6.53;;
33279;SDS011;20403;43.114;12.434;2023-10-19T03:46:49;9.32;;;6.25;;
33279;SDS011;20403;43.114;12.434;2023-10-19T03:49:21;14.18;;;5.80;;
33279;SDS011;20403;43.114;12.434;2023-10-19T03:51:48;14.68;;;6.13;;
33279;SDS011;20403;43.114;12.434;2023-10-19T03:54:26;6.93;;;5.43;;
33279;SDS011;20403;43.114;12.434;2023-10-19T03:56:54;7.95;;;6.07;;
33279;SDS011;20403;43.114;12.434;2023-10-19T03:59:22;12.85;;;6.57;;
33279;SDS011;20403;43.114;12.434;2023-10-19T04:01:48;9.55;;;5.57;;
33279;SDS011;20403;43.114;12.434;2023-10-19T04:04:14;11.88;;;5.72;;
33279;SDS011;20403;43.114;12.434;2023-10-19T04:06:41;8.82;;;5.20;;
33279;SDS011;20403;43.114;12.434;2023-10-19T04:11:41;9.50;;;5.78;;
33279;SDS011;20403;43.114;12.434;2023-10-19T04:14:16;13.02;;;5.65;;
33279;SDS011;20403;43.114;12.434;2023-10-19T04:16:42;12.18;;;6.05;;
33279;SDS011;20403;43.114;12.434;2023-10-19T04:19:11;12.23;;;6.00;;
33279;SDS011;20403;43.114;12.434;2023-10-19T04:21:38;15.27;;;6.67;;
33279;SDS011;20403;43.114;12.434;2023-10-19T04:24:07;11.48;;;6.68;;
33279;SDS011;20403;43.114;12.434;2023-10-19T04:26:34;12.80;;;6.22;;
33279;SDS011;20403;43.114;12.434;2023-10-19T04:29:02;10.52;;;6.15;;
33279;SDS011;20403;43.114;12.434;2023-10-19T04:31:38;12.35;;;6.13;;
33279;SDS011;20403;43.114;12.434;2023-10-19T04:34:15;12.02;;;6.03;;
33279;SDS011;20403;43.114;12.434;2023-10-19T04:36:45;16.05;;;6.35;;
33279;SDS011;20403;43.114;12.434;2023-10-19T04:39:11;12.68;;;5.70;;
33279;SDS011;20403;43.114;12.434;2023-10-19T04:41:39;12.13;;;5.78;;
33279;SDS011;20403;43.114;12.434;2023-10-19T04:44:05;10.98;;;6.30;;
33279;SDS011;20403;43.114;12.434;2023-10-19T04:46:33;11.45;;;5.88;;
33279;SDS011;20403;43.114;12.434;2023-10-19T04:48:59;16.02;;;5.70;;
33279;SDS011;20403;43.114;12.434;2023-10-19T04:51:24;11.55;;;5.90;;
33279;SDS011;20403;43.114;12.434;2023-10-19T04:53:50;10.13;;;5.70;;
33279;SDS011;20403;43.114;12.434;2023-10-19T04:56:15;10.60;;;6.13;;
33279;SDS011;20403;43.114;12.434;2023-10-19T04:58:41;12.05;;;6.07;;
33279;SDS011;20403;43.114;12.434;2023-10-19T05:01:06;10.90;;;6.30;;
33279;SDS011;20403;43.114;12.434;2023-10-19T05:03:32;14.68;;;6.22;;
33279;SDS011;20403;43.114;12.434;2023-10-19T05:05:57;9.13;;;5.95;;
33279;SDS011;20403;43.114;12.434;2023-10-19T05:08:23;11.93;;;5.97;;
33279;SDS011;20403;43.114;12.434;2023-10-19T05:10:53;15.20;;;5.90;;
33279;SDS011;20403;43.114;12.434;2023-10-19T05:15:50;9.57;;;5.53;;
33279;SDS011;20403;43.114;12.434;2023-10-19T05:18:18;12.85;;;5.60;;
33279;SDS011;20403;43.114;12.434;2023-10-19T05:20:44;12.20;;;5.00;;
33279;SDS011;20403;43.114;12.434;2023-10-19T05:23:11;13.40;;;6.00;;
33279;SDS011;20403;43.114;12.434;2023-10-19T05:25:38;7.22;;;4.38;;
33279;SDS011;20403;43.114;12.434;2023-10-19T05:28:05;9.38;;;4.72;;
33279;SDS011;20403;43.114;12.434;2023-10-19T05:30:32;8.15;;;4.10;;
33279;SDS011;20403;43.114;12.434;2023-10-19T05:32:57;14.30;;;4.90;;
33279;SDS011;20403;43.114;12.434;2023-10-19T05:35:24;13.13;;;5.20;;
33279;SDS011;20403;43.114;12.434;2023-10-19T05:37:51;8.63;;;4.75;;
33279;SDS011;20403;43.114;12.434;2023-10-19T05:40:17;13.07;;;5.18;;
33279;SDS011;20403;43.114;12.434;2023-10-19T05:42:44;16.58;;;5.07;;
33279;SDS011;20403;43.114;12.434;2023-10-19T05:45:11;12.07;;;5.13;;
33279;SDS011;20403;43.114;12.434;2023-10-19T05:47:38;9.48;;;4.50;;
33279;SDS011;20403;43.114;12.434;2023-10-19T05:50:04;11.35;;;4.35;;
33279;SDS011;20403;43.114;12.434;2023-10-19T05:52:29;12.38;;;5.53;;
33279;SDS011;20403;43.114;12.434;2023-10-19T05:54:55;10.27;;;4.50;;
33279;SDS011;20403;43.114;12.434;2023-10-19T05:57:22;8.85;;;4.55;;
33279;SDS011;20403;43.114;12.434;2023-10-19T05:59:49;13.50;;;5.00;;
33279;SDS011;20403;43.114;12.434;2023-10-19T06:02:14;7.57;;;4.05;;
33279;SDS011;20403;43.114;12.434;2023-10-19T06:04:40;20.67;;;6.30;;
33279;SDS011;20403;43.114;12.434;2023-10-19T06:07:06;12.82;;;4.00;;
33279;SDS011;20403;43.114;12.434;2023-10-19T06:09:31;11.50;;;4.20;;
33279;SDS011;20403;43.114;12.434;2023-10-19T06:11:57;16.08;;;5.10;;
33279;SDS011;20403;43.114;12.434;2023-10-19T06:14:22;12.15;;;5.30;;
33279;SDS011;20403;43.114;12.434;2023-10-19T06:16:47;21.83;;;5.15;;
33279;SDS011;20403;43.114;12.434;2023-10-19T06:19:13;12.75;;;5.07;;
33279;SDS011;20403;43.114;12.434;2023-10-19T06:21:38;11.07;;;4.82;;
33279;SDS011;20403;43.114;12.434;2023-10-19T06:24:05;17.27;;;4.88;;
33279;SDS011;20403;43.114;12.434;2023-10-19T06:26:30;10.65;;;4.15;;
33279;SDS011;20403;43.114;12.434;2023-10-19T06:28:56;14.93;;;4.40;;
33279;SDS011;20403;43.114;12.434;2023-10-19T06:31:24;13.63;;;4.32;;
33279;SDS011;20403;43.114;12.434;2023-10-19T06:33:51;13.88;;;4.47;;
33279;SDS011;20403;43.114;12.434;2023-10-19T06:36:17;10.00;;;4.38;;
33279;SDS011;20403;43.114;12.434;2023-10-19T06:38:44;13.18;;;4.50;;
33279;SDS011;20403;43.114;12.434;2023-10-19T06:41:10;9.30;;;4.18;;
33279;SDS011;20403;43.114;12.434;2023-10-19T06:43:37;15.45;;;4.50;;
33279;SDS011;20403;43.114;12.434;2023-10-19T06:46:03;8.80;;;4.10;;
33279;SDS011;20403;43.114;12.434;2023-10-19T06:48:29;12.05;;;4.75;;
33279;SDS011;20403;43.114;12.434;2023-10-19T06:50:55;9.63;;;4.30;;
33279;SDS011;20403;43.114;12.434;2023-10-19T06:53:21;13.60;;;5.85;;
33279;SDS011;20403;43.114;12.434;2023-10-19T06:55:47;17.05;;;5.70;;
33279;SDS011;20403;43.114;12.434;2023-10-19T06:58:13;16.10;;;6.18;;
33279;SDS011;20403;43.114;12.434;2023-10-19T07:00:40;11.75;;;5.15;;
33279;SDS011;20403;43.114;12.434;2023-10-19T07:03:09;34.67;;;9.73;;
33279;SDS011;20403;43.114;12.434;2023-10-19T07:05:35;28.50;;;9.10;;
33279;SDS011;20403;43.114;12.434;2023-10-19T07:08:00;24.90;;;8.52;;
33279;SDS011;20403;43.114;12.434;2023-10-19T07:10:27;18.20;;;8.63;;
33279;SDS011;20403;43.114;12.434;2023-10-19T07:12:53;19.27;;;8.05;;
33279;SDS011;20403;43.114;12.434;2023-10-19T07:15:20;21.42;;;8.68;;
33279;SDS011;20403;43.114;12.434;2023-10-19T07:17:47;20.67;;;8.98;;
33279;SDS011;20403;43.114;12.434;2023-10-19T07:20:14;24.77;;;8.40;;
33279;SDS011;20403;43.114;12.434;2023-10-19T07:22:57;19.42;;;9.48;;
33279;SDS011;20403;43.114;12.434;2023-10-19T07:28:01;24.75;;;12.13;;
33279;SDS011;20403;43.114;12.434;2023-10-19T07:30:26;41.65;;;11.07;;
33279;SDS011;20403;43.114;12.434;2023-10-19T07:32:52;28.92;;;11.18;;
33279;SDS011;20403;43.114;12.434;2023-10-19T07:35:23;17.42;;;8.40;;
33279;SDS011;20403;43.114;12.434;2023-10-19T07:37:51;24.70;;;10.15;;
33279;SDS011;20403;43.114;12.434;2023-10-19T07:40:16;20.35;;;9.65;;
33279;SDS011;20403;43.114;12.434;2023-10-19T07:42:43;19.40;;;8.68;;
33279;SDS011;20403;43.114;12.434;2023-10-19T07:45:09;17.48;;;5.68;;
33279;SDS011;20403;43.114;12.434;2023-10-19T07:47:40;15.70;;;5.65;;
33279;SDS011;20403;43.114;12.434;2023-10-19T07:50:09;14.18;;;5.38;;
33279;SDS011;20403;43.114;12.434;2023-10-19T07:52:41;14.15;;;4.93;;
33279;SDS011;20403;43.114;12.434;2023-10-19T07:57:38;17.98;;;5.45;;
33279;SDS011;20403;43.114;12.434;2023-10-19T08:00:06;21.20;;;5.07;;
33279;SDS011;20403;43.114;12.434;2023-10-19T08:02:33;11.82;;;4.90;;
33279;SDS011;20403;43.114;12.434;2023-10-19T08:05:00;23.10;;;5.63;;
33279;SDS011;20403;43.114;12.434;2023-10-19T08:07:27;17.55;;;5.20;;
33279;SDS011;20403;43.114;12.434;2023-10-19T08:09:53;19.02;;;5.75;;
33279;SDS011;20403;43.114;12.434;2023-10-19T08:12:19;17.58;;;4.85;;
33279;SDS011;20403;43.114;12.434;2023-10-19T08:14:47;11.68;;;4.72;;
33279;SDS011;20403;43.114;12.434;2023-10-19T08:17:13;17.83;;;5.10;;
33279;SDS011;20403;43.114;12.434;2023-10-19T08:19:39;25.02;;;5.18;;
33279;SDS011;20403;43.114;12.434;2023-10-19T08:22:05;17.30;;;5.13;;
33279;SDS011;20403;43.114;12.434;2023-10-19T08:24:30;21.05;;;5.90;;
33279;SDS011;20403;43.114;12.434;2023-10-19T08:27:00;18.65;;;6.00;;
33279;SDS011;20403;43.114;12.434;2023-10-19T08:29:26;18.60;;;6.15;;
33279;SDS011;20403;43.114;12.434;2023-10-19T08:31:51;19.40;;;5.28;;
33279;SDS011;20403;43.114;12.434;2023-10-19T08:34:16;28.08;;;9.10;;
33279;SDS011;20403;43.114;12.434;2023-10-19T08:36:42;16.98;;;5.88;;
33279;SDS011;20403;43.114;12.434;2023-10-19T08:39:08;14.55;;;5.57;;
33279;SDS011;20403;43.114;12.434;2023-10-19T08:41:37;18.77;;;7.07;;
33279;SDS011;20403;43.114;12.434;2023-10-19T08:44:05;19.73;;;5.80;;
33279;SDS011;20403;43.114;12.434;2023-10-19T08:46:36;19.05;;;5.60;;
33279;SDS011;20403;43.114;12.434;2023-10-19T08:49:09;26.58;;;6.00;;
33279;SDS011;20403;43.114;12.434;2023-10-19T08:51:37;20.27;;;5.82;;
33279;SDS011;20403;43.114;12.434;2023-10-19T08:54:04;29.13;;;6.03;;
33279;SDS011;20403;43.114;12.434;2023-10-19T08:56:30;19.23;;;6.30;;
33279;SDS011;20403;43.114;12.434;2023-10-19T08:58:58;24.38;;;5.80;;
33279;SDS011;20403;43.114;12.434;2023-10-19T09:01:24;20.77;;;5.10;;
33279;SDS011;20403;43.114;12.434;2023-10-19T09:03:52;19.23;;;5.55;;
33279;SDS011;20403;43.114;12.434;2023-10-19T09:06:20;30.13;;;5.68;;
33279;SDS011;20403;43.114;12.434;2023-10-19T09:08:46;22.35;;;5.05;;
33279;SDS011;20403;43.114;12.434;2023-10-19T09:11:13;30.02;;;5.63;;
33279;SDS011;20403;43.114;12.434;2023-10-19T09:16:12;17.33;;;4.85;;
33279;SDS011;20403;43.114;12.434;2023-10-19T09:18:39;22.58;;;4.90;;
33279;SDS011;20403;43.114;12.434;2023-10-19T09:21:06;22.60;;;5.40;;
33279;SDS011;20403;43.114;12.434;2023-10-19T09:23:32;28.65;;;6.20;;
33279;SDS011;20403;43.114;12.434;2023-10-19T09:25:59;21.35;;;5.00;;
33279;SDS011;20403;43.114;12.434;2023-10-19T09:28:29;25.17;;;6.22;;
33279;SDS011;20403;43.114;12.434;2023-10-19T09:30:55;31.67;;;6.28;;
33279;SDS011;20403;43.114;12.434;2023-10-19T09:33:21;20.23;;;5.38;;
33279;SDS011;20403;43.114;12.434;2023-10-19T09:35:49;25.02;;;5.50;;
33279;SDS011;20403;43.114;12.434;2023-10-19T09:38:18;26.33;;;5.10;;
33279;SDS011;20403;43.114;12.434;2023-10-19T09:40:54;22.95;;;5.40;;
33279;SDS011;20403;43.114;12.434;2023-10-19T09:43:42;29.17;;;5.53;;
33279;SDS011;20403;43.114;12.434;2023-10-19T09:46:10;28.55;;;5.53;;
33279;SDS011;20403;43.114;12.434;2023-10-19T09:48:41;29.98;;;5.03;;
33279;SDS011;20403;43.114;12.434;2023-10-19T09:51:13;25.13;;;5.18;;
33279;SDS011;20403;43.114;12.434;2023-10-19T09:53:41;22.75;;;5.53;;
33279;SDS011;20403;43.114;12.434;2023-10-19T09:56:10;22.05;;;5.72;;
33279;SDS011;20403;43.114;12.434;2023-10-19T09:58:48;19.23;;;4.85;;
33279;SDS011;20403;43.114;12.434;2023-10-19T10:01:23;20.23;;;4.85;;
33279;SDS011;20403;43.114;12.434;2023-10-19T10:03:52;20.40;;;4.93;;
33279;SDS011;20403;43.114;12.434;2023-10-19T10:06:56;31.77;;;5.10;;
33279;SDS011;20403;43.114;12.434;2023-10-19T10:09:17;20.35;;;5.00;;
33279;SDS011;20403;43.114;12.434;2023-10-19T10:11:48;35.28;;;6.07;;
33279;SDS011;20403;43.114;12.434;2023-10-19T10:14:21;29.40;;;6.05;;
33279;SDS011;20403;43.114;12.434;2023-10-19T10:16:58;20.13;;;5.22;;
33279;SDS011;20403;43.114;12.434;2023-10-19T10:19:26;26.77;;;5.00;;
33279;SDS011;20403;43.114;12.434;2023-10-19T10:22:04;25.98;;;5.18;;
33279;SDS011;20403;43.114;12.434;2023-10-19T10:24:43;26.73;;;5.25;;
33279;SDS011;20403;43.114;12.434;2023-10-19T10:27:08;26.58;;;5.30;;
33279;SDS011;20403;43.114;12.434;2023-10-19T10:29:35;26.65;;;5.53;;
33279;SDS011;20403;43.114;12.434;2023-10-19T10:32:01;27.52;;;5.93;;
33279;SDS011;20403;43.114;12.434;2023-10-19T10:37:04;19.83;;;5.50;;
33279;SDS011;20403;43.114;12.434;2023-10-19T10:39:35;23.27;;;5.60;;
33279;SDS011;20403;43.114;12.434;2023-10-19T10:42:05;27.38;;;5.60;;
33279;SDS011;20403;43.114;12.434;2023-10-19T10:44:37;25.08;;;5.30;;
33279;SDS011;20403;43.114;12.434;2023-10-19T10:47:07;24.42;;;5.40;;
33279;SDS011;20403;43.114;12.434;2023-10-19T10:49:56;21.90;;;5.32;;
33279;SDS011;20403;43.114;12.434;2023-10-19T10:54:54;21.02;;;5.03;;
33279;SDS011;20403;43.114;12.434;2023-10-19T10:57:20;19.77;;;5.05;;
33279;SDS011;20403;43.114;12.434;2023-10-19T10:59:46;21.30;;;5.43;;
33279;SDS011;20403;43.114;12.434;2023-10-19T11:02:18;19.50;;;5.05;;
33279;SDS011;20403;43.114;12.434;2023-10-19T11:04:44;21.75;;;5.70;;
33279;SDS011;20403;43.114;12.434;2023-10-19T11:07:17;20.05;;;5.47;;
33279;SDS011;20403;43.114;12.434;2023-10-19T11:09:44;20.63;;;5.45;;
33279;SDS011;20403;43.114;12.434;2023-10-19T11:12:11;21.77;;;5.32;;
33279;SDS011;20403;43.114;12.434;2023-10-19T11:14:38;31.70;;;6.03;;
33279;SDS011;20403;43.114;12.434;2023-10-19T11:17:15;26.13;;;5.50;;
33279;SDS011;20403;43.114;12.434;2023-10-19T11:19:41;34.03;;;5.93;;
33279;SDS011;20403;43.114;12.434;2023-10-19T11:22:09;22.65;;;5.88;;
33279;SDS011;20403;43.114;12.434;2023-10-19T11:24:36;27.63;;;6.00;;
33279;SDS011;20403;43.114;12.434;2023-10-19T11:27:05;24.55;;;5.85;;
33279;SDS011;20403;43.114;12.434;2023-10-19T11:29:32;23.13;;;5.97;;
33279;SDS011;20403;43.114;12.434;2023-10-19T11:32:01;20.00;;;5.70;;
33279;SDS011;20403;43.114;12.434;2023-10-19T11:34:27;25.60;;;6.07;;
33279;SDS011;20403;43.114;12.434;2023-10-19T11:36:54;25.58;;;5.70;;
33279;SDS011;20403;43.114;12.434;2023-10-19T11:39:22;30.02;;;6.32;;
33279;SDS011;20403;43.114;12.434;2023-10-19T11:41:49;25.33;;;5.38;;
33279;SDS011;20403;43.114;12.434;2023-10-19T11:44:14;24.75;;;5.70;;
33279;SDS011;20403;43.114;12.434;2023-10-19T11:46:40;23.83;;;6.25;;
33279;SDS011;20403;43.114;12.434;2023-10-19T11:49:05;24.98;;;5.97;;
33279;SDS011;20403;43.114;12.434;2023-10-19T11:51:31;31.38;;;5.85;;
33279;SDS011;20403;43.114;12.434;2023-10-19T11:53:56;26.13;;;5.72;;
33279;SDS011;20403;43.114;12.434;2023-10-19T11:56:22;16.80;;;5.68;;
33279;SDS011;20403;43.114;12.434;2023-10-19T11:58:50;22.90;;;5.93;;
33279;SDS011;20403;43.114;12.434;2023-10-19T12:01:15;33.92;;;6.35;;
33279;SDS011;20403;43.114;12.434;2023-10-19T12:03:43;25.58;;;5.70;;
33279;SDS011;20403;43.114;12.434;2023-10-19T12:06:10;19.55;;;5.05;;
33279;SDS011;20403;43.114;12.434;2023-10-19T12:08:37;22.00;;;5.20;;
33279;SDS011;20403;43.114;12.434;2023-10-19T12:11:05;20.52;;;5.55;;
33279;SDS011;20403;43.114;12.434;2023-10-19T12:13:40;22.92;;;5.20;;
33279;SDS011;20403;43.114;12.434;2023-10-19T12:16:09;21.38;;;5.15;;
33279;SDS011;20403;43.114;12.434;2023-10-19T12:18:37;19.27;;;5.18;;
33279;SDS011;20403;43.114;12.434;2023-10-19T12:21:07;19.25;;;4.95;;
33279;SDS011;20403;43.114;12.434;2023-10-19T12:23:36;24.38;;;4.82;;
33279;SDS011;20403;43.114;12.434;2023-10-19T12:26:04;27.27;;;5.55;;
33279;SDS011;20403;43.114;12.434;2023-10-19T12:28:36;25.48;;;5.07;;
33279;SDS011;20403;43.114;12.434;2023-10-19T12:31:05;17.80;;;5.53;;
33279;SDS011;20403;43.114;12.434;2023-10-19T12:33:34;27.67;;;4.97;;
33279;SDS011;20403;43.114;12.434;2023-10-19T12:36:00;21.95;;;4.93;;
33279;SDS011;20403;43.114;12.434;2023-10-19T12:38:26;36.72;;;5.55;;
33279;SDS011;20403;43.114;12.434;2023-10-19T12:40:52;31.80;;;4.75;;
33279;SDS011;20403;43.114;12.434;2023-10-19T12:43:18;22.02;;;4.75;;
33279;SDS011;20403;43.114;12.434;2023-10-19T12:45:44;23.13;;;5.18;;
33279;SDS011;20403;43.114;12.434;2023-10-19T12:48:15;18.02;;;4.05;;
33279;SDS011;20403;43.114;12.434;2023-10-19T12:50:41;27.52;;;5.38;;
33279;SDS011;20403;43.114;12.434;2023-10-19T12:53:07;20.60;;;4.72;;
33279;SDS011;20403;43.114;12.434;2023-10-19T12:55:33;21.75;;;4.60;;
33279;SDS011;20403;43.114;12.434;2023-10-19T12:57:59;19.17;;;4.80;;
33279;SDS011;20403;43.114;12.434;2023-10-19T13:00:34;26.35;;;5.60;;
33279;SDS011;20403;43.114;12.434;2023-10-19T13:03:04;20.38;;;5.03;;
33279;SDS011;20403;43.114;12.434;2023-10-19T13:05:33;17.02;;;4.55;;
33279;SDS011;20403;43.114;12.434;2023-10-19T13:08:00;24.27;;;5.13;;
33279;SDS011;20403;43.114;12.434;2023-10-19T13:10:29;20.80;;;4.68;;
33279;SDS011;20403;43.114;12.434;2023-10-19T13:12:59;23.63;;;4.75;;
33279;SDS011;20403;43.114;12.434;2023-10-19T13:15:32;20.23;;;5.07;;
33279;SDS011;20403;43.114;12.434;2023-10-19T13:18:00;28.38;;;5.18;;
33279;SDS011;20403;43.114;12.434;2023-10-19T13:20:26;22.08;;;5.32;;
33279;SDS011;20403;43.114;12.434;2023-10-19T13:22:53;19.45;;;4.28;;
33279;SDS011;20403;43.114;12.434;2023-10-19T13:25:20;29.17;;;5.60;;
33279;SDS011;20403;43.114;12.434;2023-10-19T13:28:04;19.83;;;4.65;;
33279;SDS011;20403;43.114;12.434;2023-10-19T13:30:37;27.75;;;4.63;;
33279;SDS011;20403;43.114;12.434;2023-10-19T13:33:03;25.70;;;4.80;;
33279;SDS011;20403;43.114;12.434;2023-10-19T13:35:35;23.48;;;4.65;;
33279;SDS011;20403;43.114;12.434;2023-10-19T13:38:04;21.92;;;4.80;;
33279;SDS011;20403;43.114;12.434;2023-10-19T13:40:31;30.42;;;5.38;;
33279;SDS011;20403;43.114;12.434;2023-10-19T13:42:57;24.45;;;4.50;;
33279;SDS011;20403;43.114;12.434;2023-10-19T13:45:23;22.27;;;5.25;;
33279;SDS011;20403;43.114;12.434;2023-10-19T13:47:49;30.35;;;5.15;;
33279;SDS011;20403;43.114;12.434;2023-10-19T13:50:14;19.85;;;4.68;;
33279;SDS011;20403;43.114;12.434;2023-10-19T13:52:40;20.92;;;4.18;;
33279;SDS011;20403;43.114;12.434;2023-10-19T13:55:06;22.30;;;4.85;;
33279;SDS011;20403;43.114;12.434;2023-10-19T13:57:32;27.55;;;4.13;;
33279;SDS011;20403;43.114;12.434;2023-10-19T13:59:59;18.10;;;3.83;;
33279;SDS011;20403;43.114;12.434;2023-10-19T14:02:24;22.63;;;4.50;;
33279;SDS011;20403;43.114;12.434;2023-10-19T14:04:50;25.35;;;4.65;;
33279;SDS011;20403;43.114;12.434;2023-10-19T14:07:17;24.17;;;4.80;;
33279;SDS011;20403;43.114;12.434;2023-10-19T14:09:42;29.45;;;4.97;;
33279;SDS011;20403;43.114;12.434;2023-10-19T14:12:08;35.80;;;5.63;;
33279;SDS011;20403;43.114;12.434;2023-10-19T14:14:34;27.83;;;5.18;;
33279;SDS011;20403;43.114;12.434;2023-10-19T14:17:00;16.45;;;3.38;;
33279;SDS011;20403;43.114;12.434;2023-10-19T14:19:25;21.33;;;4.63;;
33279;SDS011;20403;43.114;12.434;2023-10-19T14:21:52;26.90;;;5.28;;
33279;SDS011;20403;43.114;12.434;2023-10-19T14:24:17;25.52;;;4.10;;
33279;SDS011;20403;43.114;12.434;2023-10-19T14:26:45;22.98;;;4.70;;
33279;SDS011;20403;43.114;12.434;2023-10-19T14:29:12;27.67;;;4.90;;
33279;SDS011;20403;43.114;12.434;2023-10-19T14:31:38;22.55;;;3.72;;
33279;SDS011;20403;43.114;12.434;2023-10-19T14:34:04;22.77;;;4.35;;
33279;SDS011;20403;43.114;12.434;2023-10-19T14:36:29;13.55;;;3.80;;
33279;SDS011;20403;43.114;12.434;2023-10-19T14:38:55;22.08;;;4.43;;
33279;SDS011;20403;43.114;12.434;2023-10-19T14:41:20;28.05;;;5.50;;
33279;SDS011;20403;43.114;12.434;2023-10-19T14:43:46;22.85;;;4.38;;
33279;SDS011;20403;43.114;12.434;2023-10-19T14:46:11;24.17;;;5.18;;
33279;SDS011;20403;43.114;12.434;2023-10-19T14:48:38;22.88;;;4.22;;
33279;SDS011;20403;43.114;12.434;2023-10-19T14:51:03;18.75;;;4.65;;